Time;durP1;ratioP1;P1;durP2;ratioP2;P2;SDS_P1;SDS_P2;PMS_P1;PMS_P2;Temp;Humidity;BMP_temperature;BMP_pressure;BME280_temperature;BME280_humidity;BME280_pressure;Samples;Min_cycle;Max_cycle;Signal;HPM_P1;HPM_P2
2021/09/14 00:03:16;;;;;;;5.87;3.60;;;;;;;20.10;57.84;100319.69;2402025;82;25656;-75
2021/09/14 00:06:54;;;;;;;4.25;3.62;;;;;;;20.12;57.79;100322.33;2395304;82;31556;-74
2021/09/14 00:10:15;;;;;;;4.62;3.45;;;;;;;20.11;57.71;100317.45;2390486;82;25535;-74
2021/09/14 00:14:04;;;;;;;;;;;;;;;;;;;;;
2021/09/14 00:17:30;;;;;;;6.30;4.45;;;;;;;20.03;58.04;100315.39;2340621;84;26016;-80
2021/09/14 00:20:51;;;;;;;5.25;4.00;;;;;;;20.01;58.14;100315.85;2349116;84;25757;-75
2021/09/14 00:24:17;;;;;;;6.75;3.85;;;;;;;20.03;58.23;100318.04;2348730;84;25958;-76
2021/09/14 00:27:38;;;;;;;4.17;3.77;;;;;;;20.06;58.30;100324.61;2345882;84;25711;-74
2021/09/14 00:30:59;;;;;;;6.70;5.10;;;;;;;20.06;58.21;100323.28;2346893;84;25732;-76
2021/09/14 00:34:20;;;;;;;4.42;3.50;;;;;;;20.09;58.18;100323.70;2348449;84;25803;-89
2021/09/14 00:37:50;;;;;;;4.05;3.65;;;;;;;20.10;58.21;100326.30;2346745;84;25711;-73
2021/09/14 00:41:11;;;;;;;4.72;3.52;;;;;;;20.08;58.24;100321.92;2371160;82;25930;-73
2021/09/14 00:44:32;;;;;;;6.20;3.98;;;;;;;20.09;58.28;100318.41;2368442;82;25644;-74
2021/09/14 00:47:55;;;;;;;5.65;3.72;;;;;;;20.09;58.23;100321.92;2357550;83;25843;-74
2021/09/14 00:51:16;;;;;;;6.83;3.55;;;;;;;20.04;58.25;100322.42;2356369;83;25609;-74
2021/09/14 00:54:40;;;;;;;4.53;3.80;;;;;;;20.03;58.33;100323.33;2361272;83;25171;-75
2021/09/14 00:58:01;;;;;;;4.67;3.15;;;;;;;20.01;58.38;100320.73;2355860;83;25553;-75
2021/09/14 01:01:22;;;;;;;5.33;3.83;;;;;;;20.04;58.44;100328.59;2353669;83;25660;-74
2021/09/14 01:04:43;;;;;;;3.83;3.42;;;;;;;20.03;58.46;100330.81;2360085;83;25866;-74
2021/09/14 01:08:07;;;;;;;4.10;3.70;;;;;;;20.05;58.43;100328.16;2352831;83;30896;-74
2021/09/14 01:11:31;;;;;;;4.35;3.95;;;;;;;20.04;58.41;100333.88;2356904;83;25987;-80
2021/09/14 01:14:58;;;;;;;14.10;3.35;;;;;;;20.04;58.55;100336.52;2355207;83;25149;-73
2021/09/14 01:18:20;;;;;;;5.12;3.77;;;;;;;20.07;58.43;100340.03;2359343;83;25793;-73
2021/09/14 01:21:47;;;;;;;8.23;3.40;;;;;;;20.03;58.46;100330.81;2357494;83;26359;-88
2021/09/14 01:25:18;;;;;;;5.00;3.67;;;;;;;20.07;58.51;100332.09;2351229;83;25529;-88
2021/09/14 01:29:07;;;;;;;4.60;3.27;;;;;;;20.06;58.51;100325.94;2359715;83;25588;-75
2021/09/14 01:32:28;;;;;;;6.33;3.65;;;;;;;20.05;58.56;100336.97;2353087;83;26220;-76
2021/09/14 01:35:56;;;;;;;4.92;3.80;;;;;;;20.06;58.70;100332.55;2351925;83;25994;-75
2021/09/14 01:39:20;;;;;;;4.45;3.62;;;;;;;20.08;58.59;100333.83;2348674;83;25474;-75
2021/09/14 01:42:54;;;;;;;5.67;3.75;;;;;;;20.07;58.60;100335.61;2355221;83;25884;-82
2021/09/14 01:46:15;;;;;;;4.17;3.67;;;;;;;20.10;58.58;100332.05;2357469;83;25872;-73
2021/09/14 01:49:54;;;;;;;5.35;3.42;;;;;;;20.07;58.53;100338.25;2355891;83;25829;-73
2021/09/14 01:53:15;;;;;;;3.90;3.42;;;;;;;20.07;58.55;100338.71;2355271;83;25517;-80
2021/09/14 01:56:45;;;;;;;4.08;3.58;;;;;;;20.11;58.60;100328.03;2352588;83;25909;-74
2021/09/14 02:00:15;;;;;;;4.53;3.52;;;;;;;20.11;58.52;100322.74;2325857;83;25636;-74
2021/09/14 02:04:31;;;;;;;4.30;3.67;;;;;;;20.06;58.52;100331.23;2350219;83;26294;-74
2021/09/14 02:42:53;;;;;;;5.50;3.98;;;;;;;20.08;58.78;100327.22;2283957;86;26084;-74
2021/09/14 03:02:07;;;;;;;6.10;3.70;;;;;;;19.91;59.07;100338.06;2235087;88;26236;-74
2021/09/14 03:05:39;;;;;;;7.60;3.83;;;;;;;19.86;59.22;100336.83;2267118;85;25862;-75
2021/09/14 03:09:01;;;;;;;4.90;4.10;;;;;;;19.86;59.28;100336.83;2249165;86;26651;-76
2021/09/14 03:12:58;;;;;;;6.92;3.10;;;;;;;19.89;59.26;100339.88;2271283;85;26300;-77
2021/09/14 03:16:19;;;;;;;4.30;3.55;;;;;;;19.94;59.27;100337.56;2264084;86;26022;-74
2021/09/14 03:19:50;;;;;;;5.55;4.00;;;;;;;19.95;59.36;100333.18;2275289;86;26449;-87
2021/09/14 03:23:19;;;;;;;4.22;3.55;;;;;;;19.90;59.36;100341.17;2278386;86;25784;-81
2021/09/14 03:26:40;;;;;;;9.28;3.58;;;;;;;19.84;59.44;100340.38;2275583;86;25789;-74
2021/09/14 03:30:04;;;;;;;13.35;3.33;;;;;;;19.85;59.49;100340.38;2271666;86;25378;-76
2021/09/14 03:33:45;;;;;;;3.25;2.95;;;;;;;19.92;59.43;100345.13;2274548;86;25981;-75
2021/09/14 03:37:17;;;;;;;6.45;3.67;;;;;;;19.93;59.33;100346.87;2262492;87;25725;-78
2021/09/14 03:40:39;;;;;;;3.95;3.25;;;;;;;19.91;59.38;100352.63;2236830;87;25778;-74
2021/09/14 03:44:10;;;;;;;3.55;3.25;;;;;;;19.97;59.37;100350.75;2263689;87;25832;-74
2021/09/14 03:47:45;;;;;;;4.28;3.05;;;;;;;19.98;59.36;100343.27;2242355;87;26449;-89
2021/09/14 03:51:09;;;;;;;5.10;3.27;;;;;;;20.04;59.20;100343.14;2262234;87;25822;-74
2021/09/14 03:54:33;;;;;;;6.33;3.50;;;;;;;20.07;59.18;100340.91;2247351;87;25718;-74
2021/09/14 03:57:54;;;;;;;5.90;3.45;;;;;;;20.09;59.06;100352.35;2296758;85;25661;-78
2021/09/14 04:01:17;;;;;;;4.62;3.12;;;;;;;20.09;59.07;100360.30;2309903;85;26172;-74
2021/09/14 04:11:43;;;;;;;7.55;3.95;;;;;;;20.02;59.10;100364.80;2313745;85;26044;-80
2021/09/14 04:15:06;;;;;;;6.37;3.33;;;;;;;20.00;59.21;100363.08;2342044;83;26058;-74
2021/09/14 04:18:28;;;;;;;4.67;3.40;;;;;;;20.02;59.17;100360.84;2366706;83;25834;-74
2021/09/14 04:22:01;;;;;;;5.45;3.65;;;;;;;20.00;59.25;100366.59;2360529;83;25583;-85
2021/09/14 04:25:31;;;;;;;3.87;3.42;;;;;;;19.95;59.21;100365.80;2358409;83;25647;-74
2021/09/14 04:29:12;;;;;;;;;;;;;;;;;;;;;
2021/09/14 04:33:18;;;;;;;4.17;3.27;;;;;;;20.00;59.26;100379.82;2268024;86;25830;-75
2021/09/14 04:36:35;;;;;;;6.67;3.35;;;;;;;19.99;59.28;100374.11;2307939;85;25596;-76
2021/09/14 04:40:11;;;;;;;8.90;4.10;;;;;;;19.97;59.38;100376.34;2322158;85;25841;-74
2021/09/14 04:43:33;;;;;;;8.38;3.92;;;;;;;19.91;59.38;100379.08;2269558;87;25689;-75
2021/09/14 04:47:08;;;;;;;6.28;3.87;;;;;;;19.84;59.55;100380.94;2312498;85;25714;-75
2021/09/14 04:50:30;;;;;;;7.33;4.62;;;;;;;19.77;59.67;100372.21;2317121;85;25722;-74
2021/09/14 04:53:51;;;;;;;4.58;4.10;;;;;;;19.83;59.69;100379.66;2263414;87;25554;-73
2021/09/14 04:57:13;;;;;;;6.42;4.05;;;;;;;19.87;59.71;100386.19;2309858;85;25856;-74
2021/09/14 05:00:34;;;;;;;4.95;3.58;;;;;;;19.88;59.70;100381.34;2319190;85;25528;-74
2021/09/14 05:04:17;;;;;;;5.87;3.35;;;;;;;19.94;59.66;100385.20;2265098;87;25649;-75
2021/09/14 05:08:03;;;;;;;4.28;3.62;;;;;;;19.88;59.73;100390.61;2303652;85;25648;-74
2021/09/14 05:11:25;;;;;;;8.70;3.52;;;;;;;19.84;59.81;100395.94;2311875;85;25678;-75
2021/09/14 05:15:00;;;;;;;4.75;3.33;;;;;;;19.84;59.95;100394.62;2319079;85;25721;-73
2021/09/14 05:18:39;;;;;;;4.95;3.58;;;;;;;19.80;60.08;100390.69;2259801;87;25705;-80
2021/09/14 05:22:07;;;;;;;9.68;3.70;;;;;;;19.80;60.15;100388.05;2299205;85;25666;-75
2021/09/14 05:25:28;;;;;;;7.87;3.87;;;;;;;19.77;60.26;100394.70;2360509;82;25421;-74
2021/09/14 05:28:48;;;;;;;4.90;3.90;;;;;;;19.80;60.29;100394.66;2390204;82;31425;-74
2021/09/14 05:32:10;;;;;;;8.60;3.58;;;;;;;19.92;60.22;100396.72;2410294;81;25701;-74
2021/09/14 05:35:56;;;;;;;7.83;3.92;;;;;;;20.04;60.13;100403.14;2382549;82;25677;-83
2021/09/14 05:39:33;;;;;;;4.67;3.27;;;;;;;20.20;59.83;100409.95;2373104;82;25679;-74
2021/09/14 05:43:07;;;;;;;7.85;4.40;;;;;;;20.32;59.70;100408.00;2381532;82;26174;-75
2021/09/14 05:46:31;;;;;;;3.87;3.30;;;;;;;20.24;59.73;100405.03;2410003;81;25200;-74
2021/09/14 05:49:52;;;;;;;7.12;3.72;;;;;;;20.24;59.67;100406.81;2411945;81;25543;-77
2021/09/14 05:53:13;;;;;;;5.10;3.37;;;;;;;20.20;59.82;100407.77;2423621;81;25628;-74
2021/09/14 05:56:41;;;;;;;7.35;3.20;;;;;;;20.22;59.86;100410.81;2420220;81;25141;-74
2021/09/14 06:00:05;;;;;;;;;;;;;;;20.24;59.91;100406.81;2422965;81;25653;-73
2021/09/14 06:03:36;;;;;;;8.55;3.00;;;;;;;20.22;60.02;100400.23;2417806;80;25645;-83
2021/09/14 06:06:59;;;;;;;18.25;3.67;;;;;;;20.27;59.90;100401.02;2419979;81;25656;-84
2021/09/14 06:10:21;;;;;;;15.18;3.60;;;;;;;20.33;59.74;100395.21;2417978;81;25856;-74
2021/09/14 06:14:02;;;;;;;16.17;3.42;;;;;;;20.43;59.62;100406.08;2326217;84;25862;-75
2021/09/14 06:17:23;;;;;;;9.83;3.33;;;;;;;20.50;59.45;100413.02;2329788;84;25718;-88
2021/09/14 06:20:45;;;;;;;14.65;3.20;;;;;;;20.58;59.28;100416.43;2331045;84;25696;-84
2021/09/14 06:24:07;;;;;;;4.33;3.08;;;;;;;20.66;59.15;100418.97;2335358;84;25739;-74
2021/09/14 06:27:28;;;;;;;3.90;3.20;;;;;;;20.75;58.95;100413.49;2336024;84;25799;-86
2021/09/14 06:34:47;;;;;;;3.72;2.45;;;;;;;20.92;58.76;100425.11;2289858;85;25768;-77
2021/09/14 06:38:09;;;;;;;4.95;2.87;;;;;;;21.03;58.92;100420.97;2290055;86;25719;-75
2021/09/14 06:41:55;;;;;;;4.33;2.30;;;;;;;21.15;58.97;100424.69;2310604;84;25818;-76
2021/09/14 06:45:21;;;;;;;3.62;2.50;;;;;;;21.30;58.96;100428.84;2315817;84;25810;-88
2021/09/14 06:49:19;;;;;;;4.25;2.05;;;;;;;21.44;59.05;100426.81;2315545;84;25780;-75
2021/09/14 06:52:56;;;;;;;7.40;2.52;;;;;;;21.57;59.08;100424.78;2466060;79;26018;-74
2021/09/14 06:56:17;;;;;;;11.65;5.25;;;;;;;21.71;59.02;100433.32;2391173;82;26122;-86
2021/09/14 06:59:41;;;;;;;4.53;2.10;;;;;;;21.83;58.86;100433.49;2391342;82;26230;-75
2021/09/14 07:03:10;;;;;;;8.60;3.10;;;;;;;21.94;58.83;100427.52;2389356;80;26490;-83
2021/09/14 07:06:51;;;;;;;4.87;2.83;;;;;;;22.08;58.72;100429.86;2386169;82;26239;-90
2021/09/14 07:10:28;;;;;;;5.22;2.77;;;;;;;22.22;58.46;100430.89;2382096;81;26198;-77
2021/09/14 07:14:04;;;;;;;6.35;2.92;;;;;;;22.24;57.94;100435.27;2386799;82;26157;-85
2021/09/14 07:17:25;;;;;;;8.83;3.27;;;;;;;22.25;57.80;100437.46;2398110;82;25728;-85
2021/09/14 07:20:48;;;;;;;3.72;2.67;;;;;;;22.29;57.45;100441.33;2402922;82;25776;-75
2021/09/14 07:27:47;;;;;;;5.60;2.08;;;;;;;22.59;57.81;100439.70;2357162;83;26182;-91
2021/09/14 07:31:10;;;;;;;5.10;2.62;;;;;;;22.85;57.66;100443.50;2373330;83;25564;-76
2021/09/14 07:34:31;;;;;;;9.30;2.17;;;;;;;23.10;57.57;100439.75;2377904;83;25704;-77
2021/09/14 07:37:52;;;;;;;4.78;2.47;;;;;;;23.40;57.62;100442.02;2368351;83;25187;-76
2021/09/14 07:42:02;;;;;;;7.90;1.85;;;;;;;23.64;57.07;100443.57;2373791;83;25723;-75
2021/09/14 07:45:24;;;;;;;4.72;3.00;;;;;;;23.90;56.82;100449.02;2374796;83;25680;-79
2021/09/14 07:48:45;;;;;;;6.55;3.50;;;;;;;24.29;55.92;100446.02;2377101;83;25881;-76
2021/09/14 07:52:06;;;;;;;7.35;3.50;;;;;;;25.27;54.24;100449.41;2377485;83;25837;-90
2021/09/14 07:55:26;;;;;;;7.80;3.77;;;;;;;25.49;53.55;100445.98;2378023;83;25737;-75
2021/09/14 07:58:47;;;;;;;7.28;3.25;;;;;;;26.03;52.81;100451.52;2377751;83;25746;-76
2021/09/14 08:02:08;;;;;;;7.55;3.02;;;;;;;28.70;50.82;100456.61;2377899;83;25786;-75
2021/09/14 08:05:39;;;;;;;7.95;2.75;;;;;;;31.38;47.84;100469.06;2400566;82;25752;-91
2021/09/14 08:09:00;;;;;;;6.28;2.62;;;;;;;33.68;44.26;100476.31;2399176;82;25834;-77
2021/09/14 08:12:33;;;;;;;4.62;2.30;;;;;;;35.63;40.96;100476.08;2406668;82;25519;-76
2021/09/14 08:16:04;;;;;;;8.18;2.60;;;;;;;37.21;38.53;100495.60;2392097;81;25624;-76
2021/09/14 08:19:41;;;;;;;5.05;2.22;;;;;;;38.79;35.88;100500.53;2398963;82;26002;-77
2021/09/14 08:23:01;;;;;;;6.90;2.17;;;;;;;40.19;33.50;100502.18;2422743;81;26174;-85
2021/09/14 08:26:22;;;;;;;4.65;1.62;;;;;;;41.47;31.62;100510.95;2433556;81;25552;-76
2021/09/14 08:29:45;;;;;;;4.73;1.83;;;;;;;42.62;29.97;100519.16;2428413;81;25727;-76
2021/09/14 08:33:06;;;;;;;6.53;1.47;;;;;;;43.06;28.65;100518.03;2420640;81;26202;-79
2021/09/14 08:36:28;;;;;;;4.70;1.85;;;;;;;43.23;27.78;100518.38;2423352;81;25580;-77
2021/09/14 08:39:48;;;;;;;5.97;1.65;;;;;;;42.32;27.59;100516.53;2457227;79;26102;-86
2021/09/14 08:43:12;;;;;;;2.22;1.27;;;;;;;42.99;27.10;100518.37;2476759;79;25644;-77
2021/09/14 08:46:35;;;;;;;2.22;1.22;;;;;;;43.99;26.55;100517.58;2476104;79;25738;-76
2021/09/14 08:49:55;;;;;;;3.52;1.20;;;;;;;45.04;25.53;100520.72;2476929;79;25174;-76
2021/09/14 08:53:17;;;;;;;10.63;1.70;;;;;;;45.93;24.48;100527.25;2473238;79;25226;-78
2021/09/14 08:56:44;;;;;;;8.00;2.25;;;;;;;46.19;22.11;100526.42;2469458;79;25591;-78
2021/09/14 09:00:13;;;;;;;3.98;2.12;;;;;;;45.01;21.22;100528.82;2470199;79;25154;-77
2021/09/14 09:03:40;;;;;;;6.62;2.20;;;;;;;42.17;21.55;100512.18;2415922;79;25629;-77
2021/09/14 09:07:07;;;;;;;2.60;1.72;;;;;;;39.49;23.08;100507.16;2461957;79;25848;-81
2021/09/14 09:10:35;;;;;;;2.77;1.57;;;;;;;37.85;24.80;100502.71;2473412;79;25652;-78
2021/09/14 09:14:06;;;;;;;6.00;2.00;;;;;;;36.69;25.82;100504.13;2459150;79;26035;-76
2021/09/14 09:17:27;;;;;;;3.27;1.82;;;;;;;36.78;27.05;100499.74;2475498;79;25564;-76
2021/09/14 09:20:49;;;;;;;4.83;1.50;;;;;;;36.37;27.05;100494.05;2447274;79;25660;-77
2021/09/14 09:24:13;;;;;;;2.25;1.00;;;;;;;35.48;27.64;100495.78;2431488;79;25534;-79
2021/09/14 09:27:34;;;;;;;1.62;1.07;;;;;;;34.61;27.73;100494.86;2430140;80;25772;-75
2021/09/14 09:35:05;;;;;;;2.15;1.40;;;;;;;34.14;29.18;100487.04;2394433;81;25876;-76
2021/09/14 09:38:29;;;;;;;3.08;1.22;;;;;;;34.42;29.14;100495.33;2369585;83;25673;-76
2021/09/14 09:42:02;;;;;;;5.22;1.05;;;;;;;35.40;28.89;100491.43;2368999;80;25994;-76
2021/09/14 09:45:32;;;;;;;2.22;1.05;;;;;;;35.51;28.63;100491.11;2323826;83;26182;-81
2021/09/14 09:52:43;;;;;;;3.27;1.20;;;;;;;35.95;27.70;100491.14;2135579;89;25780;-77
2021/09/14 09:56:10;;;;;;;2.35;0.95;;;;;;;34.68;27.88;100486.64;2136137;91;25833;-77
2021/09/14 09:59:32;;;;;;;2.58;1.10;;;;;;;33.91;28.61;100478.72;2125003;92;26032;-76
2021/09/14 10:03:14;;;;;;;3.20;1.02;;;;;;;34.34;29.28;100481.51;2133691;92;25838;-78
2021/09/14 10:06:43;;;;;;;1.30;0.90;;;;;;;35.22;28.60;100480.20;2120695;92;26002;-80
2021/09/14 10:10:07;;;;;;;1.52;0.85;;;;;;;36.16;27.60;100474.11;2121431;92;26183;-78
2021/09/14 10:13:39;;;;;;;1.37;0.90;;;;;;;36.88;27.17;100487.95;2122467;92;25820;-76
2021/09/14 10:17:05;;;;;;;2.15;0.72;;;;;;;36.92;26.38;100478.19;2122290;92;25930;-76
2021/09/14 10:20:30;;;;;;;1.52;0.90;;;;;;;36.41;26.39;100481.08;2117412;93;25993;-81
2021/09/14 10:23:54;;;;;;;3.80;1.35;;;;;;;35.53;27.02;100472.88;2163092;90;25758;-80
2021/09/14 10:27:23;;;;;;;0.95;0.82;;;;;;;34.38;27.46;100476.23;2180375;89;25783;-77
2021/09/14 10:31:20;;;;;;;2.58;1.30;;;;;;;33.36;28.52;100471.83;2252785;86;32488;-78
2021/09/14 10:34:56;;;;;;;1.80;1.32;;;;;;;32.45;29.47;100466.30;2242657;86;25839;-75
2021/09/14 10:38:27;;;;;;;5.83;1.20;;;;;;;31.82;30.29;100466.27;2246033;86;26452;-78
2021/09/14 10:42:37;;;;;;;1.30;0.82;;;;;;;31.36;31.27;100462.93;2182342;88;25797;-79
2021/09/14 10:46:32;;;;;;;1.42;1.10;;;;;;;30.88;32.19;100464.89;2162792;88;26043;-75
2021/09/14 10:50:28;;;;;;;2.67;1.30;;;;;;;30.29;32.96;100456.17;2267580;85;26581;-79
2021/09/14 10:54:28;;;;;;;4.53;1.55;;;;;;;29.80;33.41;100453.53;2284558;86;25829;-80
2021/09/14 10:58:16;;;;;;;3.52;1.40;;;;;;;29.44;34.07;100452.81;2274570;85;25806;-80
2021/09/14 11:01:43;;;;;;;4.15;1.60;;;;;;;29.08;34.63;100457.83;2280565;86;25269;-76
2021/09/14 11:05:13;;;;;;;8.23;2.00;;;;;;;28.84;34.82;100458.59;2281809;85;25620;-80
2021/09/14 11:09:25;;;;;;;3.22;1.47;;;;;;;28.69;35.41;100455.75;2272605;85;25733;-76
2021/09/14 11:12:50;;;;;;;3.27;1.57;;;;;;;28.53;35.91;100461.48;2279225;86;25929;-77
2021/09/14 11:16:23;;;;;;;3.70;1.40;;;;;;;28.37;36.11;100456.44;2291316;84;25946;-75
2021/09/14 11:20:04;;;;;;;2.70;1.40;;;;;;;28.14;36.34;100451.71;2400059;81;25918;-79
2021/09/14 11:23:26;;;;;;;5.22;1.42;;;;;;;28.00;36.52;100455.06;2418213;81;25977;-76
2021/09/14 11:26:48;;;;;;;3.90;1.10;;;;;;;27.78;36.81;100439.14;2427376;81;25904;-77
2021/09/14 11:30:15;;;;;;;1.92;0.95;;;;;;;27.64;36.89;100438.89;2425357;80;25613;-77
2021/09/14 11:33:43;;;;;;;3.90;1.22;;;;;;;27.50;37.16;100435.48;2422577;81;25458;-76
2021/09/14 11:37:10;;;;;;;3.27;1.65;;;;;;;27.38;37.65;100435.19;2415961;81;25794;-77
2021/09/14 11:40:43;;;;;;;;;;;;;;;27.22;38.14;100434.53;2368742;79;25616;-81
2021/09/14 11:44:33;;;;;;;4.28;1.00;;;;;;;27.15;38.57;100431.73;2262892;86;25759;-79
2021/09/14 11:48:02;;;;;;;2.25;1.30;;;;;;;27.05;38.85;100431.23;2230709;88;25930;-78
2021/09/14 11:51:39;;;;;;;4.03;0.93;;;;;;;27.06;38.96;100434.77;2227756;88;25647;-80
2021/09/14 11:55:09;;;;;;;4.87;1.10;;;;;;;26.94;39.17;100434.84;2240158;88;25711;-75
2021/09/14 11:58:34;;;;;;;2.25;1.20;;;;;;;26.88;39.31;100435.11;2237363;88;25538;-79
2021/09/14 12:06:10;;;;;;;6.67;0.90;;;;;;;26.84;39.42;100439.72;2158143;89;25688;-78
2021/09/14 12:09:32;;;;;;;5.00;1.10;;;;;;;26.77;39.48;100429.36;2167696;89;26258;-79
2021/09/14 12:12:57;;;;;;;1.30;1.20;;;;;;;26.70;39.72;100431.42;2168257;89;26335;-76
2021/09/14 12:16:29;;;;;;;3.55;1.42;;;;;;;26.73;39.95;100439.76;2211757;88;25723;-76
2021/09/14 12:19:52;;;;;;;4.72;1.00;;;;;;;26.79;39.63;100440.84;2124760;92;25866;-76
2021/09/14 12:23:15;;;;;;;3.02;1.07;;;;;;;26.79;39.29;100433.69;2131570;92;25888;-77
2021/09/14 12:26:40;;;;;;;4.53;1.40;;;;;;;26.78;39.34;100437.78;2133333;92;25803;-78
2021/09/14 12:30:01;;;;;;;2.62;0.98;;;;;;;26.67;39.26;100436.03;2128770;92;26512;-76
2021/09/14 12:33:23;;;;;;;3.67;1.07;;;;;;;26.53;39.39;100431.27;2108820;93;25789;-76
2021/09/14 12:36:45;;;;;;;1.15;1.00;;;;;;;26.51;39.44;100433.98;2108563;93;25837;-76
2021/09/14 12:40:14;;;;;;;0.85;0.80;;;;;;;26.45;39.57;100432.87;2108479;93;26593;-82
2021/09/14 12:43:38;;;;;;;3.98;1.00;;;;;;;26.42;39.46;100426.78;2108357;93;25804;-79
2021/09/14 12:46:59;;;;;;;2.17;1.32;;;;;;;26.48;39.44;100423.41;2106071;92;26382;-83
2021/09/14 12:50:20;;;;;;;2.47;1.60;;;;;;;26.58;39.37;100426.11;2107551;91;25842;-78
2021/09/14 12:53:42;;;;;;;2.35;1.20;;;;;;;26.76;39.25;100420.91;2108122;93;25372;-76
2021/09/14 12:57:03;;;;;;;1.10;1.00;;;;;;;26.80;38.70;100414.52;2187452;87;25292;-85
2021/09/14 13:00:27;;;;;;;1.32;1.10;;;;;;;26.78;38.91;100424.40;2248875;87;25926;-76
2021/09/14 13:03:49;;;;;;;3.52;1.12;;;;;;;26.91;38.82;100413.58;2249380;86;25691;-81
2021/09/14 13:07:13;;;;;;;1.52;1.17;;;;;;;27.04;38.85;100414.78;2248987;87;25705;-76
2021/09/14 13:10:35;;;;;;;2.55;1.15;;;;;;;27.07;38.52;100413.78;2249566;86;25868;-78
2021/09/14 13:17:38;;;;;;;2.52;1.10;;;;;;;27.26;38.62;100412.03;2244154;88;25687;-82
2021/09/14 13:20:59;;;;;;;4.40;1.70;;;;;;;27.59;38.45;100413.25;2249818;87;26336;-75
2021/09/14 13:24:20;;;;;;;3.15;1.32;;;;;;;27.74;38.13;100416.53;2248366;88;25640;-81
2021/09/14 13:28:06;;;;;;;4.62;1.30;;;;;;;27.72;38.09;100422.45;2236010;88;26274;-76
2021/09/14 13:31:52;;;;;;;1.77;1.00;;;;;;;27.68;37.98;100418.19;2222967;88;25783;-76
2021/09/14 13:35:13;;;;;;;1.50;1.22;;;;;;;27.47;38.10;100414.67;2234743;87;25681;-80
2021/09/14 13:38:44;;;;;;;2.80;1.17;;;;;;;27.22;38.47;100419.80;2224864;87;25707;-82
2021/09/14 13:42:25;;;;;;;3.02;2.08;;;;;;;27.09;38.77;100404.72;2123856;90;25820;-83
2021/09/14 13:50:24;;;;;;;9.03;3.35;;;;;;;26.95;39.11;100403.13;2119649;90;26264;-83
2021/09/14 13:53:52;;;;;;;1.57;1.35;;;;;;;26.92;39.22;100408.62;2108388;89;26320;-79
2021/09/14 13:57:21;;;;;;;1.90;1.70;;;;;;;26.78;39.42;100411.03;2114749;90;25922;-77
2021/09/14 14:04:48;;;;;;;2.72;1.30;;;;;;;26.88;39.52;100404.81;2097522;91;25925;-76
2021/09/14 14:08:19;;;;;;;3.15;1.60;;;;;;;26.89;39.64;100403.87;2093507;93;25910;-83
2021/09/14 14:11:48;;;;;;;2.35;1.50;;;;;;;26.81;39.64;100407.75;2101871;92;25804;-76
2021/09/14 14:15:21;;;;;;;2.33;1.98;;;;;;;26.72;39.71;100408.61;2102505;91;25877;-75
2021/09/14 14:18:57;;;;;;;8.75;1.62;;;;;;;26.73;39.96;100409.90;2117573;90;26280;-77
2021/09/14 14:22:18;;;;;;;2.22;1.55;;;;;;;26.73;39.92;100405.89;2180836;89;25801;-81
2021/09/14 14:25:39;;;;;;;8.70;1.98;;;;;;;26.75;40.01;100408.01;2180228;90;26034;-76
2021/09/14 14:29:00;;;;;;;3.08;1.80;;;;;;;26.76;40.04;100408.88;2180594;90;25735;-76
2021/09/14 14:32:21;;;;;;;5.35;1.70;;;;;;;26.67;40.18;100412.83;2180654;90;25935;-76
2021/09/14 14:35:42;;;;;;;7.12;2.10;;;;;;;26.63;40.27;100404.55;2180317;90;25754;-76
2021/09/14 14:39:03;;;;;;;4.70;2.08;;;;;;;26.60;40.34;100406.87;2180839;90;25382;-74
2021/09/14 14:42:24;;;;;;;3.15;2.20;;;;;;;26.55;40.45;100406.18;2240046;87;26020;-75
2021/09/14 14:45:48;;;;;;;9.78;2.83;;;;;;;26.51;40.65;100405.05;2247670;88;25671;-76
2021/09/14 14:49:09;;;;;;;3.85;2.12;;;;;;;26.45;40.57;100401.25;2244761;87;25648;-75
2021/09/14 14:52:30;;;;;;;1.90;1.70;;;;;;;26.37;40.68;100406.93;2254080;86;25725;-76
2021/09/14 14:56:15;;;;;;;2.67;2.00;;;;;;;26.28;40.57;100416.19;2233053;87;26185;-82
2021/09/14 14:59:51;;;;;;;2.40;2.20;;;;;;;26.19;40.64;100408.56;2218077;88;25886;-81
2021/09/14 15:03:14;;;;;;;3.90;2.55;;;;;;;26.12;40.75;100408.38;2235146;86;26205;-84
2021/09/14 15:06:49;;;;;;;4.35;2.70;;;;;;;25.94;40.88;100409.13;2232035;88;25786;-83
2021/09/14 15:10:18;;;;;;;3.02;2.75;;;;;;;25.76;41.04;100416.03;2215703;88;26184;-81
2021/09/14 15:13:39;;;;;;;3.10;2.83;;;;;;;25.60;41.50;100408.59;2243291;87;25737;-80
2021/09/14 15:17:00;;;;;;;4.17;2.65;;;;;;;25.47;41.68;100412.66;2239046;88;25421;-77
2021/09/14 15:20:27;;;;;;;5.20;2.80;;;;;;;25.39;41.93;100406.28;2238177;86;26311;-76
2021/09/14 15:23:47;;;;;;;5.58;4.05;;;;;;;25.34;42.29;100408.23;2248023;86;25918;-75
2021/09/14 15:27:10;;;;;;;3.72;3.17;;;;;;;25.25;42.52;100403.26;2249857;87;25862;-84
2021/09/14 15:30:52;;;;;;;6.33;4.62;;;;;;;25.25;42.70;100403.73;2249483;87;25727;-82
2021/09/14 15:34:24;;;;;;;4.25;3.85;;;;;;;25.24;42.81;100396.16;2228640;87;25983;-83
2021/09/14 15:37:45;;;;;;;6.97;3.92;;;;;;;25.29;43.09;100396.02;2158353;90;26018;-75
2021/09/14 15:41:17;;;;;;;5.60;4.42;;;;;;;25.30;42.98;100403.95;2148214;90;26043;-77
2021/09/14 15:45:09;;;;;;;4.72;3.60;;;;;;;25.29;42.93;100403.55;2149793;90;26323;-76
2021/09/14 15:49:31;;;;;;;6.58;3.33;;;;;;;25.25;42.94;100400.59;2116152;91;26072;-76
2021/09/14 15:53:04;;;;;;;4.60;4.08;;;;;;;25.20;43.00;100389.20;2125362;91;25838;-74
2021/09/14 15:56:25;;;;;;;5.10;4.28;;;;;;;25.19;43.11;100402.14;2138275;91;26060;-75
2021/09/14 16:00:24;;;;;;;5.90;4.30;;;;;;;25.16;43.27;100398.25;2117042;92;46025;-75
2021/09/14 16:04:04;;;;;;;6.83;3.62;;;;;;;25.09;43.28;100386.89;2181956;86;25815;-81
2021/09/14 16:07:28;;;;;;;4.72;3.75;;;;;;;24.94;43.44;100391.44;2122670;91;26982;-83
2021/09/14 16:10:59;;;;;;;4.03;3.72;;;;;;;24.82;43.55;100388.75;2098150;91;26141;-84
2021/09/14 16:14:43;;;;;;;9.43;4.00;;;;;;;24.70;43.87;100392.73;2104178;89;26049;-83
2021/09/14 16:18:12;;;;;;;6.22;3.83;;;;;;;24.77;43.90;100392.03;2115560;91;26371;-80
2021/09/14 16:22:19;;;;;;;4.25;3.95;;;;;;;24.78;44.11;100389.80;2139578;90;25698;-80
2021/09/14 16:25:49;;;;;;;5.67;4.00;;;;;;;24.60;44.45;100392.61;2124847;91;25751;-83
2021/09/14 16:29:31;;;;;;;4.45;4.05;;;;;;;24.36;44.88;100398.27;2114692;91;25743;-79
2021/09/14 16:33:09;;;;;;;6.70;3.80;;;;;;;24.17;45.29;100401.15;2012681;94;25753;-79
2021/09/14 16:37:19;;;;;;;6.33;3.95;;;;;;;23.99;45.71;100398.12;2034402;94;26345;-79
2021/09/14 16:41:03;;;;;;;4.67;4.15;;;;;;;23.80;46.06;100398.31;2017725;94;25853;-79
2021/09/14 16:49:24;;;;;;;4.17;3.87;;;;;;;23.48;46.66;100397.89;2017298;95;26086;-80
2021/09/14 16:53:18;;;;;;;4.17;3.87;;;;;;;23.28;47.02;100398.00;2017887;95;26212;-78
2021/09/14 16:56:42;;;;;;;5.95;4.20;;;;;;;23.14;47.48;100397.53;2016278;97;26103;-79
2021/09/14 17:03:55;;;;;;;5.22;4.83;;;;;;;22.89;48.03;100399.09;2019619;87;25807;-77
2021/09/14 17:07:24;;;;;;;4.92;4.35;;;;;;;22.74;48.33;100407.88;2213627;87;26192;-79
2021/09/14 17:10:45;;;;;;;6.05;4.53;;;;;;;22.65;48.51;100406.80;2203237;86;26035;-79
2021/09/14 17:15:21;;;;;;;5.25;4.40;;;;;;;22.55;48.76;100403.97;2216423;87;26201;-78
2021/09/14 17:19:53;;;;;;;5.35;4.00;;;;;;;22.48;49.02;100410.34;2209309;87;26181;-79
2021/09/14 17:23:14;;;;;;;6.30;4.65;;;;;;;22.35;49.34;100413.30;2162903;89;26120;-78
2021/09/14 17:26:40;;;;;;;5.65;4.45;;;;;;;22.27;49.61;100409.06;2181886;89;26267;-78
2021/09/14 17:30:35;;;;;;;5.87;5.37;;;;;;;22.16;49.77;100415.51;2154513;89;25882;-80
2021/09/14 17:33:56;;;;;;;6.67;5.53;;;;;;;22.07;49.94;100418.36;2149495;89;26266;-79
2021/09/14 17:37:28;;;;;;;11.35;7.80;;;;;;;21.93;50.16;100419.11;2173570;88;26275;-78
2021/09/14 17:41:04;;;;;;;5.85;5.35;;;;;;;21.85;50.42;100423.73;2171481;88;26304;-77
2021/09/14 17:44:39;;;;;;;11.22;5.78;;;;;;;21.69;50.64;100421.85;2163399;88;26177;-78
2021/09/14 17:48:20;;;;;;;5.58;5.08;;;;;;;21.57;50.92;100422.13;2193550;87;26052;-78
2021/09/14 17:51:58;;;;;;;5.27;4.80;;;;;;;21.48;51.32;100423.19;2232741;87;26286;-80
2021/09/14 17:59:28;;;;;;;6.40;5.75;;;;;;;21.29;51.82;100413.35;2216351;86;25466;-78
2021/09/14 18:02:52;;;;;;;7.17;5.80;;;;;;;21.17;51.98;100410.96;2241819;86;26085;-79